sensor_id;sensor_type;location;lat;lon;timestamp;P1;durP1;ratioP1;P2;durP2;ratioP2
32780;SDS011;19136;47.032;15.502;2023-12-14T00:00:04;34.60;;;19.15;;
32780;SDS011;19136;47.032;15.502;2023-12-14T00:02:31;33.25;;;20.50;;
32780;SDS011;19136;47.032;15.502;2023-12-14T00:05:01;30.33;;;18.42;;
32780;SDS011;19136;47.032;15.502;2023-12-14T00:07:27;34.58;;;17.58;;
32780;SDS011;19136;47.032;15.502;2023-12-14T00:09:53;30.35;;;19.55;;
32780;SDS011;19136;47.032;15.502;2023-12-14T00:12:20;26.85;;;17.10;;
32780;SDS011;19136;47.032;15.502;2023-12-14T00:14:48;37.15;;;19.70;;
32780;SDS011;19136;47.032;15.502;2023-12-14T00:17:14;40.35;;;19.13;;
32780;SDS011;19136;47.032;15.502;2023-12-14T00:19:40;27.38;;;16.30;;
32780;SDS011;19136;47.032;15.502;2023-12-14T00:22:07;28.95;;;17.63;;
32780;SDS011;19136;47.032;15.502;2023-12-14T00:24:33;33.13;;;18.90;;
32780;SDS011;19136;47.032;15.502;2023-12-14T00:26:58;33.25;;;19.65;;
32780;SDS011;19136;47.032;15.502;2023-12-14T00:29:24;42.40;;;22.40;;
32780;SDS011;19136;47.032;15.502;2023-12-14T00:31:49;35.33;;;20.17;;
32780;SDS011;19136;47.032;15.502;2023-12-14T00:34:15;32.78;;;19.50;;
32780;SDS011;19136;47.032;15.502;2023-12-14T00:36:41;35.17;;;18.10;;
32780;SDS011;19136;47.032;15.502;2023-12-14T00:39:08;28.73;;;17.02;;
32780;SDS011;19136;47.032;15.502;2023-12-14T00:41:39;28.83;;;15.75;;
32780;SDS011;19136;47.032;15.502;2023-12-14T00:44:05;31.50;;;18.48;;
32780;SDS011;19136;47.032;15.502;2023-12-14T00:46:31;29.95;;;16.48;;
32780;SDS011;19136;47.032;15.502;2023-12-14T00:48:56;33.30;;;18.08;;
32780;SDS011;19136;47.032;15.502;2023-12-14T00:51:22;31.88;;;16.27;;
32780;SDS011;19136;47.032;15.502;2023-12-14T00:53:48;38.05;;;19.75;;
32780;SDS011;19136;47.032;15.502;2023-12-14T00:56:13;28.05;;;15.88;;
32780;SDS011;19136;47.032;15.502;2023-12-14T00:58:53;32.13;;;18.52;;
32780;SDS011;19136;47.032;15.502;2023-12-14T01:01:20;27.58;;;15.27;;
32780;SDS011;19136;47.032;15.502;2023-12-14T01:03:45;26.10;;;16.13;;
32780;SDS011;19136;47.032;15.502;2023-12-14T01:06:10;23.15;;;14.07;;
32780;SDS011;19136;47.032;15.502;2023-12-14T01:08:36;23.90;;;15.07;;
32780;SDS011;19136;47.032;15.502;2023-12-14T01:11:01;25.05;;;15.10;;
32780;SDS011;19136;47.032;15.502;2023-12-14T01:13:27;25.05;;;15.27;;
32780;SDS011;19136;47.032;15.502;2023-12-14T01:15:52;22.13;;;13.80;;
32780;SDS011;19136;47.032;15.502;2023-12-14T01:18:18;28.65;;;14.80;;
32780;SDS011;19136;47.032;15.502;2023-12-14T01:20:43;27.52;;;14.82;;
32780;SDS011;19136;47.032;15.502;2023-12-14T01:23:09;26.27;;;15.75;;
32780;SDS011;19136;47.032;15.502;2023-12-14T01:25:35;20.33;;;13.13;;
32780;SDS011;19136;47.032;15.502;2023-12-14T01:28:00;22.15;;;12.48;;
32780;SDS011;19136;47.032;15.502;2023-12-14T01:30:25;21.83;;;13.13;;
32780;SDS011;19136;47.032;15.502;2023-12-14T01:32:51;20.45;;;13.25;;
32780;SDS011;19136;47.032;15.502;2023-12-14T01:35:16;22.33;;;14.63;;
32780;SDS011;19136;47.032;15.502;2023-12-14T01:37:42;23.70;;;13.70;;
32780;SDS011;19136;47.032;15.502;2023-12-14T01:40:07;23.40;;;13.05;;
32780;SDS011;19136;47.032;15.502;2023-12-14T01:42:33;18.95;;;12.45;;
32780;SDS011;19136;47.032;15.502;2023-12-14T01:44:58;24.60;;;15.68;;
32780;SDS011;19136;47.032;15.502;2023-12-14T01:47:24;21.63;;;12.68;;
32780;SDS011;19136;47.032;15.502;2023-12-14T01:49:49;22.67;;;12.85;;
32780;SDS011;19136;47.032;15.502;2023-12-14T01:52:15;24.08;;;13.40;;
32780;SDS011;19136;47.032;15.502;2023-12-14T01:54:40;22.65;;;12.73;;
32780;SDS011;19136;47.032;15.502;2023-12-14T01:57:06;24.10;;;13.50;;
32780;SDS011;19136;47.032;15.502;2023-12-14T01:59:31;26.48;;;15.23;;
32780;SDS011;19136;47.032;15.502;2023-12-14T02:01:57;24.15;;;12.93;;
32780;SDS011;19136;47.032;15.502;2023-12-14T02:04:26;23.63;;;13.05;;
32780;SDS011;19136;47.032;15.502;2023-12-14T02:06:51;21.80;;;12.68;;
32780;SDS011;19136;47.032;15.502;2023-12-14T02:09:17;24.08;;;13.57;;
32780;SDS011;19136;47.032;15.502;2023-12-14T02:11:43;35.92;;;18.33;;
32780;SDS011;19136;47.032;15.502;2023-12-14T02:14:09;47.90;;;19.80;;
32780;SDS011;19136;47.032;15.502;2023-12-14T02:16:38;30.38;;;16.27;;
32780;SDS011;19136;47.032;15.502;2023-12-14T02:19:04;33.35;;;16.13;;
32780;SDS011;19136;47.032;15.502;2023-12-14T02:21:30;27.08;;;15.27;;
32780;SDS011;19136;47.032;15.502;2023-12-14T02:23:56;30.67;;;15.93;;
32780;SDS011;19136;47.032;15.502;2023-12-14T02:26:21;30.67;;;15.30;;
32780;SDS011;19136;47.032;15.502;2023-12-14T02:28:47;27.25;;;15.57;;
32780;SDS011;19136;47.032;15.502;2023-12-14T02:31:13;36.10;;;18.73;;
32780;SDS011;19136;47.032;15.502;2023-12-14T02:33:39;28.42;;;14.52;;
32780;SDS011;19136;47.032;15.502;2023-12-14T02:36:04;32.63;;;16.92;;
32780;SDS011;19136;47.032;15.502;2023-12-14T02:38:30;27.65;;;15.10;;
32780;SDS011;19136;47.032;15.502;2023-12-14T02:40:56;26.45;;;15.40;;
32780;SDS011;19136;47.032;15.502;2023-12-14T02:43:21;25.30;;;14.82;;
32780;SDS011;19136;47.032;15.502;2023-12-14T02:45:49;23.17;;;12.70;;
32780;SDS011;19136;47.032;15.502;2023-12-14T02:48:14;24.23;;;13.95;;
32780;SDS011;19136;47.032;15.502;2023-12-14T02:50:41;24.00;;;13.65;;
32780;SDS011;19136;47.032;15.502;2023-12-14T02:53:06;25.13;;;14.00;;
32780;SDS011;19136;47.032;15.502;2023-12-14T02:55:32;24.33;;;13.00;;
32780;SDS011;19136;47.032;15.502;2023-12-14T02:57:57;23.80;;;13.23;;
32780;SDS011;19136;47.032;15.502;2023-12-14T03:00:22;22.83;;;13.15;;
32780;SDS011;19136;47.032;15.502;2023-12-14T03:02:48;23.40;;;13.48;;
32780;SDS011;19136;47.032;15.502;2023-12-14T03:05:13;19.77;;;12.55;;
32780;SDS011;19136;47.032;15.502;2023-12-14T03:07:39;19.85;;;11.40;;
32780;SDS011;19136;47.032;15.502;2023-12-14T03:10:05;20.92;;;12.35;;
32780;SDS011;19136;47.032;15.502;2023-12-14T03:12:30;19.48;;;11.35;;
32780;SDS011;19136;47.032;15.502;2023-12-14T03:14:56;20.27;;;12.10;;
32780;SDS011;19136;47.032;15.502;2023-12-14T03:17:21;19.45;;;11.88;;
32780;SDS011;19136;47.032;15.502;2023-12-14T03:19:47;19.42;;;10.82;;
32780;SDS011;19136;47.032;15.502;2023-12-14T03:22:12;20.27;;;11.07;;
32780;SDS011;19136;47.032;15.502;2023-12-14T03:24:38;20.50;;;11.10;;
32780;SDS011;19136;47.032;15.502;2023-12-14T03:27:04;18.15;;;10.32;;
32780;SDS011;19136;47.032;15.502;2023-12-14T03:29:30;19.52;;;10.45;;
32780;SDS011;19136;47.032;15.502;2023-12-14T03:31:56;19.55;;;10.05;;
32780;SDS011;19136;47.032;15.502;2023-12-14T03:34:21;18.23;;;11.07;;
32780;SDS011;19136;47.032;15.502;2023-12-14T03:36:47;15.88;;;9.52;;
32780;SDS011;19136;47.032;15.502;2023-12-14T03:39:12;16.95;;;11.73;;
32780;SDS011;19136;47.032;15.502;2023-12-14T03:41:38;16.20;;;9.60;;
32780;SDS011;19136;47.032;15.502;2023-12-14T03:44:03;16.80;;;11.35;;
32780;SDS011;19136;47.032;15.502;2023-12-14T03:46:29;20.60;;;10.85;;
32780;SDS011;19136;47.032;15.502;2023-12-14T03:48:55;20.83;;;11.15;;
32780;SDS011;19136;47.032;15.502;2023-12-14T03:51:20;15.43;;;11.07;;
32780;SDS011;19136;47.032;15.502;2023-12-14T03:53:46;17.98;;;10.73;;
32780;SDS011;19136;47.032;15.502;2023-12-14T03:56:12;20.73;;;11.38;;
32780;SDS011;19136;47.032;15.502;2023-12-14T03:58:38;14.35;;;9.70;;
32780;SDS011;19136;47.032;15.502;2023-12-14T04:01:03;21.95;;;10.52;;
32780;SDS011;19136;47.032;15.502;2023-12-14T04:03:29;17.58;;;10.23;;
32780;SDS011;19136;47.032;15.502;2023-12-14T04:05:54;17.17;;;10.48;;
32780;SDS011;19136;47.032;15.502;2023-12-14T04:08:20;18.45;;;10.88;;
32780;SDS011;19136;47.032;15.502;2023-12-14T04:10:46;17.55;;;11.15;;
32780;SDS011;19136;47.032;15.502;2023-12-14T04:13:11;16.38;;;9.93;;
32780;SDS011;19136;47.032;15.502;2023-12-14T04:15:37;18.05;;;11.23;;
32780;SDS011;19136;47.032;15.502;2023-12-14T04:18:02;15.05;;;9.48;;
32780;SDS011;19136;47.032;15.502;2023-12-14T04:20:28;20.70;;;11.48;;
32780;SDS011;19136;47.032;15.502;2023-12-14T04:22:54;19.45;;;10.57;;
32780;SDS011;19136;47.032;15.502;2023-12-14T04:25:20;18.17;;;11.60;;
32780;SDS011;19136;47.032;15.502;2023-12-14T04:27:46;21.17;;;11.55;;
32780;SDS011;19136;47.032;15.502;2023-12-14T04:30:11;15.23;;;10.90;;
32780;SDS011;19136;47.032;15.502;2023-12-14T04:32:37;20.52;;;10.43;;
32780;SDS011;19136;47.032;15.502;2023-12-14T04:35:03;22.08;;;11.35;;
32780;SDS011;19136;47.032;15.502;2023-12-14T04:37:30;21.63;;;11.65;;
32780;SDS011;19136;47.032;15.502;2023-12-14T04:39:57;22.67;;;12.70;;
32780;SDS011;19136;47.032;15.502;2023-12-14T04:42:22;20.73;;;10.75;;
32780;SDS011;19136;47.032;15.502;2023-12-14T04:44:48;24.77;;;11.38;;
32780;SDS011;19136;47.032;15.502;2023-12-14T04:47:14;26.27;;;11.38;;
32780;SDS011;19136;47.032;15.502;2023-12-14T04:49:40;22.92;;;11.82;;
32780;SDS011;19136;47.032;15.502;2023-12-14T04:52:05;30.27;;;13.70;;
32780;SDS011;19136;47.032;15.502;2023-12-14T04:54:31;26.85;;;12.73;;
32780;SDS011;19136;47.032;15.502;2023-12-14T04:56:57;24.20;;;12.30;;
32780;SDS011;19136;47.032;15.502;2023-12-14T04:59:22;24.95;;;12.48;;
32780;SDS011;19136;47.032;15.502;2023-12-14T05:01:48;23.35;;;11.93;;
32780;SDS011;19136;47.032;15.502;2023-12-14T05:04:14;27.23;;;13.00;;
32780;SDS011;19136;47.032;15.502;2023-12-14T05:06:39;32.35;;;14.13;;
32780;SDS011;19136;47.032;15.502;2023-12-14T05:09:05;28.65;;;14.27;;
32780;SDS011;19136;47.032;15.502;2023-12-14T05:11:32;32.05;;;14.15;;
32780;SDS011;19136;47.032;15.502;2023-12-14T05:13:57;31.42;;;13.73;;
32780;SDS011;19136;47.032;15.502;2023-12-14T05:16:23;26.58;;;14.82;;
32780;SDS011;19136;47.032;15.502;2023-12-14T05:18:52;38.10;;;15.95;;
32780;SDS011;19136;47.032;15.502;2023-12-14T05:21:18;39.28;;;15.85;;
32780;SDS011;19136;47.032;15.502;2023-12-14T05:23:45;32.30;;;16.00;;
32780;SDS011;19136;47.032;15.502;2023-12-14T05:26:11;32.95;;;15.63;;
32780;SDS011;19136;47.032;15.502;2023-12-14T05:28:36;31.45;;;16.40;;
32780;SDS011;19136;47.032;15.502;2023-12-14T05:31:02;30.63;;;15.68;;
32780;SDS011;19136;47.032;15.502;2023-12-14T05:33:28;29.88;;;15.18;;
32780;SDS011;19136;47.032;15.502;2023-12-14T05:35:54;80.25;;;24.75;;
32780;SDS011;19136;47.032;15.502;2023-12-14T05:38:22;31.30;;;17.33;;
32780;SDS011;19136;47.032;15.502;2023-12-14T05:40:48;25.52;;;14.70;;
32780;SDS011;19136;47.032;15.502;2023-12-14T05:43:13;28.50;;;16.05;;
32780;SDS011;19136;47.032;15.502;2023-12-14T05:45:39;31.85;;;16.65;;
32780;SDS011;19136;47.032;15.502;2023-12-14T05:48:04;29.73;;;17.48;;
32780;SDS011;19136;47.032;15.502;2023-12-14T05:50:34;35.65;;;19.02;;
32780;SDS011;19136;47.032;15.502;2023-12-14T05:53:07;28.65;;;17.30;;
32780;SDS011;19136;47.032;15.502;2023-12-14T05:55:32;27.73;;;16.63;;
32780;SDS011;19136;47.032;15.502;2023-12-14T05:58:00;28.42;;;17.48;;
32780;SDS011;19136;47.032;15.502;2023-12-14T06:00:26;29.40;;;17.05;;
32780;SDS011;19136;47.032;15.502;2023-12-14T06:02:51;32.75;;;19.67;;
32780;SDS011;19136;47.032;15.502;2023-12-14T06:05:17;42.45;;;20.02;;
32780;SDS011;19136;47.032;15.502;2023-12-14T06:07:42;32.75;;;18.70;;
32780;SDS011;19136;47.032;15.502;2023-12-14T06:10:11;36.88;;;21.00;;
32780;SDS011;19136;47.032;15.502;2023-12-14T06:12:37;33.55;;;18.05;;
32780;SDS011;19136;47.032;15.502;2023-12-14T06:15:02;34.15;;;16.83;;
32780;SDS011;19136;47.032;15.502;2023-12-14T06:17:28;40.40;;;18.58;;
32780;SDS011;19136;47.032;15.502;2023-12-14T06:19:54;34.25;;;18.33;;
32780;SDS011;19136;47.032;15.502;2023-12-14T06:22:19;33.30;;;18.52;;
32780;SDS011;19136;47.032;15.502;2023-12-14T06:24:45;31.75;;;18.35;;
32780;SDS011;19136;47.032;15.502;2023-12-14T06:27:11;32.70;;;18.33;;
32780;SDS011;19136;47.032;15.502;2023-12-14T06:29:37;29.33;;;18.13;;
32780;SDS011;19136;47.032;15.502;2023-12-14T06:32:06;45.42;;;24.95;;
32780;SDS011;19136;47.032;15.502;2023-12-14T06:34:31;29.02;;;17.23;;
32780;SDS011;19136;47.032;15.502;2023-12-14T06:37:00;27.25;;;16.40;;
32780;SDS011;19136;47.032;15.502;2023-12-14T06:39:28;29.30;;;17.02;;
32780;SDS011;19136;47.032;15.502;2023-12-14T06:41:53;31.90;;;19.25;;
32780;SDS011;19136;47.032;15.502;2023-12-14T06:44:19;35.63;;;20.15;;
32780;SDS011;19136;47.032;15.502;2023-12-14T06:46:44;31.08;;;17.30;;
32780;SDS011;19136;47.032;15.502;2023-12-14T06:49:10;35.30;;;17.90;;
32780;SDS011;19136;47.032;15.502;2023-12-14T06:51:35;41.08;;;20.60;;
32780;SDS011;19136;47.032;15.502;2023-12-14T06:54:01;34.72;;;17.83;;
32780;SDS011;19136;47.032;15.502;2023-12-14T06:56:27;33.58;;;17.20;;
32780;SDS011;19136;47.032;15.502;2023-12-14T06:58:53;26.17;;;15.95;;
32780;SDS011;19136;47.032;15.502;2023-12-14T07:01:19;29.00;;;17.50;;
32780;SDS011;19136;47.032;15.502;2023-12-14T07:03:44;27.00;;;17.30;;
32780;SDS011;19136;47.032;15.502;2023-12-14T07:06:13;25.55;;;16.23;;
32780;SDS011;19136;47.032;15.502;2023-12-14T07:08:40;29.38;;;17.23;;
32780;SDS011;19136;47.032;15.502;2023-12-14T07:11:07;31.80;;;18.67;;
32780;SDS011;19136;47.032;15.502;2023-12-14T07:13:32;33.88;;;18.40;;
32780;SDS011;19136;47.032;15.502;2023-12-14T07:15:58;30.77;;;19.75;;
32780;SDS011;19136;47.032;15.502;2023-12-14T07:18:24;26.42;;;15.23;;
32780;SDS011;19136;47.032;15.502;2023-12-14T07:20:49;24.60;;;16.35;;
32780;SDS011;19136;47.032;15.502;2023-12-14T07:23:15;26.88;;;16.80;;
32780;SDS011;19136;47.032;15.502;2023-12-14T07:25:41;27.42;;;15.07;;
32780;SDS011;19136;47.032;15.502;2023-12-14T07:28:06;32.75;;;16.63;;
32780;SDS011;19136;47.032;15.502;2023-12-14T07:30:32;47.10;;;19.13;;
32780;SDS011;19136;47.032;15.502;2023-12-14T07:32:58;39.55;;;17.80;;
32780;SDS011;19136;47.032;15.502;2023-12-14T07:35:23;41.03;;;17.55;;
32780;SDS011;19136;47.032;15.502;2023-12-14T07:37:49;33.38;;;17.10;;
32780;SDS011;19136;47.032;15.502;2023-12-14T07:40:15;38.95;;;17.60;;
32780;SDS011;19136;47.032;15.502;2023-12-14T07:42:40;33.10;;;16.45;;
32780;SDS011;19136;47.032;15.502;2023-12-14T07:45:06;32.05;;;16.30;;
32780;SDS011;19136;47.032;15.502;2023-12-14T07:47:34;28.98;;;17.25;;
32780;SDS011;19136;47.032;15.502;2023-12-14T07:49:59;35.83;;;18.25;;
32780;SDS011;19136;47.032;15.502;2023-12-14T07:52:28;43.47;;;19.08;;
32780;SDS011;19136;47.032;15.502;2023-12-14T07:54:54;43.83;;;19.58;;
32780;SDS011;19136;47.032;15.502;2023-12-14T07:57:19;48.70;;;19.75;;
32780;SDS011;19136;47.032;15.502;2023-12-14T07:59:45;36.95;;;17.77;;
32780;SDS011;19136;47.032;15.502;2023-12-14T08:02:11;41.25;;;19.52;;
32780;SDS011;19136;47.032;15.502;2023-12-14T08:04:37;145.15;;;35.20;;
32780;SDS011;19136;47.032;15.502;2023-12-14T08:07:02;40.58;;;19.02;;
32780;SDS011;19136;47.032;15.502;2023-12-14T08:09:31;44.75;;;19.20;;
32780;SDS011;19136;47.032;15.502;2023-12-14T08:11:57;40.15;;;20.02;;
32780;SDS011;19136;47.032;15.502;2023-12-14T08:14:22;31.90;;;17.17;;
32780;SDS011;19136;47.032;15.502;2023-12-14T08:16:48;30.50;;;17.40;;
32780;SDS011;19136;47.032;15.502;2023-12-14T08:19:14;31.42;;;17.42;;
32780;SDS011;19136;47.032;15.502;2023-12-14T08:21:45;30.80;;;16.77;;
32780;SDS011;19136;47.032;15.502;2023-12-14T08:24:14;53.83;;;22.58;;
32780;SDS011;19136;47.032;15.502;2023-12-14T08:26:39;31.95;;;17.80;;
32780;SDS011;19136;47.032;15.502;2023-12-14T08:29:05;37.25;;;19.80;;
32780;SDS011;19136;47.032;15.502;2023-12-14T08:31:30;40.28;;;21.15;;
32780;SDS011;19136;47.032;15.502;2023-12-14T08:33:57;22.27;;;12.65;;
32780;SDS011;19136;47.032;15.502;2023-12-14T08:36:22;30.38;;;16.30;;
32780;SDS011;19136;47.032;15.502;2023-12-14T08:38:48;31.13;;;17.73;;
32780;SDS011;19136;47.032;15.502;2023-12-14T08:41:14;30.80;;;15.10;;
32780;SDS011;19136;47.032;15.502;2023-12-14T08:43:50;28.35;;;16.60;;
32780;SDS011;19136;47.032;15.502;2023-12-14T08:46:15;61.13;;;28.85;;
32780;SDS011;19136;47.032;15.502;2023-12-14T08:48:41;28.77;;;17.27;;
32780;SDS011;19136;47.032;15.502;2023-12-14T08:51:07;26.52;;;15.77;;
32780;SDS011;19136;47.032;15.502;2023-12-14T08:53:32;31.10;;;17.90;;
32780;SDS011;19136;47.032;15.502;2023-12-14T08:56:00;30.10;;;17.45;;
32780;SDS011;19136;47.032;15.502;2023-12-14T08:58:27;29.50;;;16.85;;
32780;SDS011;19136;47.032;15.502;2023-12-14T09:00:56;39.15;;;21.25;;
32780;SDS011;19136;47.032;15.502;2023-12-14T09:03:24;34.95;;;20.58;;
32780;SDS011;19136;47.032;15.502;2023-12-14T09:05:51;35.60;;;19.45;;
32780;SDS011;19136;47.032;15.502;2023-12-14T09:08:17;25.67;;;16.33;;
32780;SDS011;19136;47.032;15.502;2023-12-14T09:10:43;27.27;;;16.13;;
32780;SDS011;19136;47.032;15.502;2023-12-14T09:13:09;19.65;;;13.63;;
32780;SDS011;19136;47.032;15.502;2023-12-14T09:15:40;22.80;;;14.18;;
32780;SDS011;19136;47.032;15.502;2023-12-14T09:18:06;21.95;;;14.20;;
32780;SDS011;19136;47.032;15.502;2023-12-14T09:20:32;22.65;;;14.35;;
32780;SDS011;19136;47.032;15.502;2023-12-14T09:22:59;28.33;;;15.68;;
32780;SDS011;19136;47.032;15.502;2023-12-14T09:25:25;29.77;;;16.77;;
32780;SDS011;19136;47.032;15.502;2023-12-14T09:27:50;23.10;;;14.55;;
32780;SDS011;19136;47.032;15.502;2023-12-14T09:30:16;23.75;;;14.48;;
32780;SDS011;19136;47.032;15.502;2023-12-14T09:32:42;26.80;;;13.27;;
32780;SDS011;19136;47.032;15.502;2023-12-14T09:35:08;24.10;;;13.32;;
32780;SDS011;19136;47.032;15.502;2023-12-14T09:37:33;23.42;;;13.80;;
32780;SDS011;19136;47.032;15.502;2023-12-14T09:40:05;23.92;;;13.18;;
32780;SDS011;19136;47.032;15.502;2023-12-14T09:42:33;21.20;;;13.07;;
32780;SDS011;19136;47.032;15.502;2023-12-14T09:45:06;25.77;;;12.07;;
32780;SDS011;19136;47.032;15.502;2023-12-14T09:47:32;19.05;;;11.05;;
32780;SDS011;19136;47.032;15.502;2023-12-14T09:50:04;16.33;;;10.90;;
32780;SDS011;19136;47.032;15.502;2023-12-14T09:52:30;21.42;;;10.75;;
32780;SDS011;19136;47.032;15.502;2023-12-14T09:54:58;18.45;;;12.07;;
32780;SDS011;19136;47.032;15.502;2023-12-14T09:57:24;18.70;;;10.48;;
32780;SDS011;19136;47.032;15.502;2023-12-14T09:59:54;19.42;;;11.82;;
32780;SDS011;19136;47.032;15.502;2023-12-14T10:02:19;24.15;;;11.50;;
32780;SDS011;19136;47.032;15.502;2023-12-14T10:04:49;20.08;;;12.43;;
32780;SDS011;19136;47.032;15.502;2023-12-14T10:07:15;21.48;;;11.88;;
32780;SDS011;19136;47.032;15.502;2023-12-14T10:09:42;19.65;;;11.38;;
32780;SDS011;19136;47.032;15.502;2023-12-14T10:12:08;20.50;;;11.80;;
32780;SDS011;19136;47.032;15.502;2023-12-14T10:14:37;22.90;;;12.20;;
32780;SDS011;19136;47.032;15.502;2023-12-14T10:17:18;21.42;;;11.73;;
32780;SDS011;19136;47.032;15.502;2023-12-14T10:19:48;18.42;;;11.50;;
32780;SDS011;19136;47.032;15.502;2023-12-14T10:22:18;22.05;;;12.90;;
32780;SDS011;19136;47.032;15.502;2023-12-14T10:24:44;26.17;;;12.38;;
32780;SDS011;19136;47.032;15.502;2023-12-14T10:27:10;23.85;;;12.85;;
32780;SDS011;19136;47.032;15.502;2023-12-14T10:29:36;21.27;;;12.20;;
32780;SDS011;19136;47.032;15.502;2023-12-14T10:32:03;22.00;;;12.80;;
32780;SDS011;19136;47.032;15.502;2023-12-14T10:34:35;23.63;;;13.55;;
32780;SDS011;19136;47.032;15.502;2023-12-14T10:37:01;22.98;;;12.80;;
32780;SDS011;19136;47.032;15.502;2023-12-14T10:39:29;22.38;;;12.63;;
32780;SDS011;19136;47.032;15.502;2023-12-14T10:41:55;22.42;;;13.85;;
32780;SDS011;19136;47.032;15.502;2023-12-14T10:44:23;22.95;;;12.77;;
32780;SDS011;19136;47.032;15.502;2023-12-14T10:46:53;26.63;;;14.70;;
32780;SDS011;19136;47.032;15.502;2023-12-14T10:49:21;22.02;;;13.70;;
32780;SDS011;19136;47.032;15.502;2023-12-14T10:51:47;24.65;;;13.52;;
32780;SDS011;19136;47.032;15.502;2023-12-14T10:54:13;23.27;;;12.95;;
32780;SDS011;19136;47.032;15.502;2023-12-14T10:56:40;26.38;;;13.75;;
32780;SDS011;19136;47.032;15.502;2023-12-14T10:59:05;21.98;;;13.35;;
32780;SDS011;19136;47.032;15.502;2023-12-14T11:01:34;28.42;;;13.00;;
32780;SDS011;19136;47.032;15.502;2023-12-14T11:04:04;22.25;;;12.43;;
32780;SDS011;19136;47.032;15.502;2023-12-14T11:06:32;21.80;;;12.80;;
32780;SDS011;19136;47.032;15.502;2023-12-14T11:09:04;22.45;;;11.27;;
32780;SDS011;19136;47.032;15.502;2023-12-14T11:11:41;18.63;;;12.05;;
32780;SDS011;19136;47.032;15.502;2023-12-14T11:14:11;20.23;;;12.35;;
32780;SDS011;19136;47.032;15.502;2023-12-14T11:16:37;18.90;;;11.90;;
32780;SDS011;19136;47.032;15.502;2023-12-14T11:24:23;20.85;;;11.90;;
32780;SDS011;19136;47.032;15.502;2023-12-14T11:26:49;19.83;;;12.35;;
32780;SDS011;19136;47.032;15.502;2023-12-14T11:29:18;17.67;;;12.35;;
32780;SDS011;19136;47.032;15.502;2023-12-14T11:31:44;23.38;;;12.82;;
32780;SDS011;19136;47.032;15.502;2023-12-14T11:34:17;24.92;;;13.32;;
32780;SDS011;19136;47.032;15.502;2023-12-14T11:36:42;19.85;;;11.73;;
32780;SDS011;19136;47.032;15.502;2023-12-14T11:39:11;23.60;;;12.50;;
32780;SDS011;19136;47.032;15.502;2023-12-14T11:41:36;22.83;;;12.63;;
32780;SDS011;19136;47.032;15.502;2023-12-14T11:44:04;21.95;;;12.40;;
32780;SDS011;19136;47.032;15.502;2023-12-14T11:46:29;22.67;;;12.77;;
32780;SDS011;19136;47.032;15.502;2023-12-14T11:48:56;21.88;;;12.23;;
32780;SDS011;19136;47.032;15.502;2023-12-14T11:51:22;19.25;;;11.82;;
32780;SDS011;19136;47.032;15.502;2023-12-14T11:53:50;22.95;;;13.07;;
32780;SDS011;19136;47.032;15.502;2023-12-14T11:56:17;20.50;;;11.45;;
32780;SDS011;19136;47.032;15.502;2023-12-14T11:58:46;21.42;;;11.80;;
32780;SDS011;19136;47.032;15.502;2023-12-14T12:03:41;19.33;;;10.80;;
32780;SDS011;19136;47.032;15.502;2023-12-14T12:06:08;19.33;;;11.20;;
32780;SDS011;19136;47.032;15.502;2023-12-14T12:08:40;35.50;;;9.85;;
32780;SDS011;19136;47.032;15.502;2023-12-14T12:11:06;17.08;;;9.93;;
32780;SDS011;19136;47.032;15.502;2023-12-14T12:13:34;25.65;;;9.98;;
32780;SDS011;19136;47.032;15.502;2023-12-14T12:15:59;27.05;;;10.98;;
32780;SDS011;19136;47.032;15.502;2023-12-14T12:18:25;23.75;;;12.90;;
32780;SDS011;19136;47.032;15.502;2023-12-14T12:20:51;19.73;;;11.18;;
32780;SDS011;19136;47.032;15.502;2023-12-14T12:23:18;22.40;;;11.98;;
32780;SDS011;19136;47.032;15.502;2023-12-14T12:25:44;19.73;;;10.93;;
32780;SDS011;19136;47.032;15.502;2023-12-14T12:28:12;18.00;;;10.70;;
32780;SDS011;19136;47.032;15.502;2023-12-14T12:30:37;19.00;;;10.57;;
32780;SDS011;19136;47.032;15.502;2023-12-14T12:33:03;26.38;;;12.48;;
32780;SDS011;19136;47.032;15.502;2023-12-14T12:35:29;20.05;;;11.25;;
32780;SDS011;19136;47.032;15.502;2023-12-14T12:37:55;16.75;;;9.20;;
32780;SDS011;19136;47.032;15.502;2023-12-14T12:40:21;19.65;;;9.02;;
32780;SDS011;19136;47.032;15.502;2023-12-14T12:42:53;15.55;;;8.90;;
32780;SDS011;19136;47.032;15.502;2023-12-14T12:45:19;23.80;;;12.27;;
32780;SDS011;19136;47.032;15.502;2023-12-14T12:47:47;28.38;;;14.00;;
32780;SDS011;19136;47.032;15.502;2023-12-14T12:50:13;22.27;;;13.02;;
32780;SDS011;19136;47.032;15.502;2023-12-14T12:52:39;18.95;;;11.18;;
32780;SDS011;19136;47.032;15.502;2023-12-14T12:55:05;17.27;;;10.57;;
32780;SDS011;19136;47.032;15.502;2023-12-14T12:57:30;16.02;;;9.10;;
32780;SDS011;19136;47.032;15.502;2023-12-14T12:59:56;19.40;;;10.20;;
32780;SDS011;19136;47.032;15.502;2023-12-14T13:02:22;17.92;;;8.80;;
32780;SDS011;19136;47.032;15.502;2023-12-14T13:04:50;10.95;;;6.38;;
32780;SDS011;19136;47.032;15.502;2023-12-14T13:07:15;10.98;;;6.43;;
32780;SDS011;19136;47.032;15.502;2023-12-14T13:09:42;11.93;;;6.65;;
32780;SDS011;19136;47.032;15.502;2023-12-14T13:12:07;10.18;;;5.57;;
32780;SDS011;19136;47.032;15.502;2023-12-14T13:14:33;11.98;;;5.55;;
32780;SDS011;19136;47.032;15.502;2023-12-14T13:16:59;8.75;;;4.22;;
32780;SDS011;19136;47.032;15.502;2023-12-14T13:19:24;9.20;;;4.40;;
32780;SDS011;19136;47.032;15.502;2023-12-14T13:21:54;9.13;;;5.25;;
32780;SDS011;19136;47.032;15.502;2023-12-14T13:24:22;8.88;;;4.75;;
32780;SDS011;19136;47.032;15.502;2023-12-14T13:26:50;6.90;;;3.25;;
32780;SDS011;19136;47.032;15.502;2023-12-14T13:29:16;7.93;;;4.57;;
32780;SDS011;19136;47.032;15.502;2023-12-14T13:31:42;9.85;;;4.90;;
32780;SDS011;19136;47.032;15.502;2023-12-14T13:34:13;8.15;;;3.67;;
32780;SDS011;19136;47.032;15.502;2023-12-14T13:36:38;7.03;;;3.60;;
32780;SDS011;19136;47.032;15.502;2023-12-14T13:39:04;6.25;;;3.78;;
32780;SDS011;19136;47.032;15.502;2023-12-14T13:41:31;8.65;;;4.20;;
32780;SDS011;19136;47.032;15.502;2023-12-14T13:44:00;7.68;;;4.50;;
32780;SDS011;19136;47.032;15.502;2023-12-14T13:46:25;12.95;;;6.65;;
32780;SDS011;19136;47.032;15.502;2023-12-14T13:48:50;16.13;;;7.90;;
32780;SDS011;19136;47.032;15.502;2023-12-14T13:51:18;16.77;;;9.20;;
32780;SDS011;19136;47.032;15.502;2023-12-14T13:53:44;18.77;;;8.82;;
32780;SDS011;19136;47.032;15.502;2023-12-14T13:56:12;20.30;;;9.25;;
32780;SDS011;19136;47.032;15.502;2023-12-14T13:58:37;17.30;;;8.73;;
32780;SDS011;19136;47.032;15.502;2023-12-14T14:01:04;19.33;;;8.20;;
32780;SDS011;19136;47.032;15.502;2023-12-14T14:03:35;15.65;;;8.15;;
32780;SDS011;19136;47.032;15.502;2023-12-14T14:06:03;15.07;;;7.85;;
32780;SDS011;19136;47.032;15.502;2023-12-14T14:08:29;15.88;;;8.25;;
32780;SDS011;19136;47.032;15.502;2023-12-14T14:10:57;12.05;;;7.60;;
32780;SDS011;19136;47.032;15.502;2023-12-14T14:13:23;12.10;;;7.20;;